Time;durP1;ratioP1;P1;durP2;ratioP2;P2;SDS_P1;SDS_P2;PMS_P1;PMS_P2;Temp;Humidity;BMP_temperature;BMP_pressure;BME280_temperature;BME280_humidity;BME280_pressure;Samples;Min_cycle;Max_cycle;Signal;HPM_P1;HPM_P2
2021/07/19 00:01:02;;;;;;;18.55;14.10;;;;;;;22.67;79.62;98964.63;1706933;83;21040;-68
2021/07/19 00:03:30;;;;;;;18.50;14.23;;;;;;;22.64;79.77;98954.83;1717004;82;21086;-68
2021/07/19 00:05:56;;;;;;;19.87;13.62;;;;;;;22.61;79.88;98957.77;1689267;83;21087;-68
2021/07/19 00:08:24;;;;;;;22.75;14.05;;;;;;;22.62;79.99;98956.60;1700616;83;21091;-68
2021/07/19 00:10:50;;;;;;;20.15;14.30;;;;;;;22.65;80.28;98947.53;1718398;81;21063;-68
2021/07/19 00:13:17;;;;;;;21.93;14.68;;;;;;;22.73;80.24;98954.03;1729560;82;21553;-68
2021/07/19 00:15:45;;;;;;;21.85;14.07;;;;;;;22.79;79.99;98944.22;1718271;82;21059;-68
2021/07/19 00:18:12;;;;;;;22.37;13.70;;;;;;;22.84;79.66;98944.50;1708388;83;21035;-69
2021/07/19 00:20:38;;;;;;;19.87;14.43;;;;;;;22.87;79.36;98943.75;1715973;83;21076;-69
2021/07/19 00:23:06;;;;;;;21.52;14.28;;;;;;;22.91;79.09;98942.64;1715827;82;21020;-68
2021/07/19 00:25:34;;;;;;;20.00;13.68;;;;;;;22.89;78.76;98946.36;1707441;82;21554;-69
2021/07/19 00:28:03;;;;;;;21.12;14.60;;;;;;;22.84;78.74;98948.08;1713802;82;21222;-68
2021/07/19 00:30:33;;;;;;;23.20;15.30;;;;;;;22.77;78.80;98952.94;1714391;83;21062;-68
2021/07/19 00:32:59;;;;;;;22.20;14.53;;;;;;;22.71;78.80;98948.05;1713199;83;20999;-68
2021/07/19 00:35:29;;;;;;;21.82;14.60;;;;;;;22.64;78.74;98945.11;1700202;83;21098;-68
2021/07/19 00:37:55;;;;;;;24.55;14.63;;;;;;;22.60;79.10;98946.44;1720254;83;20971;-68
2021/07/19 00:40:25;;;;;;;20.15;14.80;;;;;;;22.61;79.38;98945.86;1715365;83;21051;-69
2021/07/19 00:42:52;;;;;;;21.10;15.58;;;;;;;22.64;79.43;98937.60;1716878;82;21558;-68
2021/07/19 00:45:22;;;;;;;22.40;15.03;;;;;;;22.66;79.19;98937.24;1717900;81;21047;-68
2021/07/19 00:47:49;;;;;;;22.32;15.70;;;;;;;22.68;79.01;98942.66;1730489;82;21443;-69
2021/07/19 00:50:18;;;;;;;19.60;14.90;;;;;;;22.68;78.74;98932.14;1715463;81;21051;-68
2021/07/19 00:52:45;;;;;;;21.02;15.25;;;;;;;22.67;78.61;98934.72;1729680;82;20983;-68
2021/07/19 00:55:13;;;;;;;23.65;15.48;;;;;;;22.68;78.59;98927.98;1709350;82;21547;-69
2021/07/19 00:57:47;;;;;;;23.85;15.65;;;;;;;22.70;78.51;98928.43;1697251;83;20980;-68
2021/07/19 01:00:14;;;;;;;23.38;17.23;;;;;;;22.73;78.42;98933.23;1699550;82;21032;-67
2021/07/19 01:02:48;;;;;;;24.18;15.63;;;;;;;22.75;78.50;98928.09;1721446;82;21424;-68
2021/07/19 01:05:17;;;;;;;22.15;15.78;;;;;;;22.76;78.50;98928.32;1704929;83;21050;-68
2021/07/19 01:07:44;;;;;;;22.13;16.67;;;;;;;22.78;78.51;98934.28;1711290;83;21453;-68
2021/07/19 01:10:16;;;;;;;23.60;15.95;;;;;;;22.75;78.10;98926.71;1725594;81;21134;-68
2021/07/19 01:12:50;;;;;;;22.10;16.02;;;;;;;22.68;77.88;98933.53;1718495;82;21621;-68
2021/07/19 01:15:16;;;;;;;21.60;16.42;;;;;;;22.66;77.93;98930.31;1698846;83;21067;-68
2021/07/19 01:17:43;;;;;;;20.85;16.15;;;;;;;22.65;77.86;98925.92;1731348;82;21028;-68
2021/07/19 01:20:11;;;;;;;22.50;16.45;;;;;;;22.66;77.84;98928.34;1708484;82;21077;-68
2021/07/19 01:23:13;;;;;;;21.93;16.00;;;;;;;22.68;77.81;98927.40;1718412;83;21068;-68
2021/07/19 01:26:17;;;;;;;21.12;14.87;;;;;;;22.69;77.77;98930.98;1693511;82;21055;-69
2021/07/19 01:28:48;;;;;;;23.35;16.02;;;;;;;22.69;77.63;98929.01;1705720;82;21024;-68
2021/07/19 01:31:25;;;;;;;20.75;16.45;;;;;;;22.64;77.50;98931.25;1710879;82;21063;-68
2021/07/19 01:33:59;;;;;;;21.55;16.37;;;;;;;22.53;77.61;98939.39;1700846;83;21063;-68
2021/07/19 01:36:33;;;;;;;20.05;15.75;;;;;;;22.42;77.98;98943.17;1708729;82;20959;-68
2021/07/19 01:39:11;;;;;;;20.62;15.25;;;;;;;22.32;78.24;98940.39;1726124;81;21018;-68
2021/07/19 01:41:37;;;;;;;22.82;15.45;;;;;;;22.22;78.39;98943.20;1724022;83;21006;-69
2021/07/19 01:44:05;;;;;;;21.93;15.45;;;;;;;22.18;78.65;98948.45;1715306;82;21012;-68
2021/07/19 01:46:32;;;;;;;23.62;15.48;;;;;;;22.11;78.82;98943.58;1716258;82;21464;-68
2021/07/19 01:48:59;;;;;;;20.02;15.48;;;;;;;22.07;78.92;98935.77;1715111;82;21035;-68
2021/07/19 01:51:25;;;;;;;21.17;14.98;;;;;;;22.04;79.07;98942.64;1716135;83;21483;-68
2021/07/19 01:53:55;;;;;;;25.20;15.58;;;;;;;22.03;79.21;98936.90;1716584;81;21080;-68
2021/07/19 01:56:22;;;;;;;24.12;15.93;;;;;;;22.06;79.40;98941.70;1727806;82;21561;-69
2021/07/19 01:58:50;;;;;;;19.92;15.30;;;;;;;22.10;79.77;98936.45;1697141;83;21063;-69
2021/07/19 02:01:18;;;;;;;20.75;14.90;;;;;;;22.16;79.87;98936.36;1716994;82;21577;-68
2021/07/19 02:03:45;;;;;;;16.57;14.55;;;;;;;22.15;79.59;98938.10;1715616;83;21121;-68
2021/07/19 02:06:12;;;;;;;22.98;14.75;;;;;;;22.09;79.57;98945.12;1697689;83;21511;-68
2021/07/19 02:08:41;;;;;;;22.65;13.15;;;;;;;22.04;79.75;98944.02;1697815;83;21518;-68
2021/07/19 02:11:16;;;;;;;18.90;13.98;;;;;;;22.00;80.09;98944.56;1715177;82;21031;-68
2021/07/19 02:13:44;;;;;;;16.27;13.58;;;;;;;22.03;80.37;98949.37;1719064;82;21050;-69
2021/07/19 02:16:12;;;;;;;18.95;13.43;;;;;;;22.04;80.33;98950.38;1716710;81;21601;-68
2021/07/19 02:18:40;;;;;;;20.77;13.88;;;;;;;22.02;80.39;98952.72;1731209;82;22033;-68
2021/07/19 02:21:06;;;;;;;19.87;14.43;;;;;;;22.03;80.59;98950.75;1704223;82;21036;-68
2021/07/19 02:23:35;;;;;;;22.75;14.35;;;;;;;22.06;80.74;98955.56;1742423;82;21013;-68
2021/07/19 02:26:09;;;;;;;17.80;13.32;;;;;;;22.11;80.76;98957.44;1724806;81;21541;-68
2021/07/19 02:28:36;;;;;;;19.20;14.00;;;;;;;22.17;80.81;98957.95;1724547;82;21015;-69
2021/07/19 02:31:05;;;;;;;20.37;13.83;;;;;;;22.22;80.76;98960.41;1716875;82;21046;-69
2021/07/19 02:33:35;;;;;;;16.87;11.97;;;;;;;22.21;80.52;98969.31;1702266;82;21491;-68
2021/07/19 02:36:05;;;;;;;19.73;13.00;;;;;;;22.17;80.52;98973.20;1708785;82;21083;-68
2021/07/19 02:38:34;;;;;;;23.10;13.93;;;;;;;22.04;80.76;98993.33;1692909;84;21077;-68
2021/07/19 02:41:04;;;;;;;20.60;14.87;;;;;;;21.91;81.31;98987.72;1703239;84;21072;-68
2021/07/19 02:43:31;;;;;;;23.20;17.07;;;;;;;21.88;81.57;98988.42;1681821;85;21059;-69
2021/07/19 02:45:58;;;;;;;21.82;16.35;;;;;;;21.86;81.59;98989.97;1724721;81;21059;-69
2021/07/19 02:48:28;;;;;;;24.65;17.02;;;;;;;21.87;81.56;98984.05;1703271;82;20991;-68
2021/07/19 02:50:58;;;;;;;22.52;17.27;;;;;;;21.88;81.42;98989.81;1719718;81;21573;-68
2021/07/19 02:53:29;;;;;;;25.00;16.75;;;;;;;21.88;81.33;98985.66;1722336;82;20948;-69
2021/07/19 02:55:56;;;;;;;21.80;15.95;;;;;;;21.92;81.28;98982.98;1730460;82;21515;-69
2021/07/19 02:58:23;;;;;;;24.18;15.83;;;;;;;21.97;81.25;98990.41;1737467;82;21792;-69
2021/07/19 03:00:50;;;;;;;20.17;15.38;;;;;;;22.02;81.07;98991.52;1720753;82;21027;-69
2021/07/19 03:03:28;;;;;;;21.82;15.95;;;;;;;22.06;81.00;98996.55;1706183;82;21479;-69
2021/07/19 03:06:01;;;;;;;23.47;16.32;;;;;;;22.08;80.87;98990.05;1709912;82;21055;-69
2021/07/19 03:08:32;;;;;;;24.20;15.83;;;;;;;22.17;80.82;98995.37;1730642;82;21015;-68
2021/07/19 03:11:04;;;;;;;20.97;15.32;;;;;;;22.24;80.63;98997.70;1703870;82;21214;-69
2021/07/19 03:13:33;;;;;;;21.60;15.98;;;;;;;22.33;80.39;98992.72;1726661;82;20974;-70
2021/07/19 03:16:00;;;;;;;23.07;15.68;;;;;;;22.44;79.97;99000.44;1721031;83;21062;-71
2021/07/19 03:18:28;;;;;;;23.47;14.98;;;;;;;22.51;79.75;99009.69;1723364;82;21010;-70
2021/07/19 03:20:55;;;;;;;21.37;16.30;;;;;;;22.58;79.42;99005.66;1706713;83;21079;-68
2021/07/19 03:23:24;;;;;;;22.67;15.88;;;;;;;22.65;78.93;98991.11;1713945;82;21007;-68
2021/07/19 03:25:51;;;;;;;23.00;15.63;;;;;;;22.72;78.10;98996.23;1727575;82;21106;-69
2021/07/19 03:28:19;;;;;;;20.82;15.75;;;;;;;22.75;77.59;99003.01;1671690;83;21585;-68
2021/07/19 03:30:48;;;;;;;23.10;15.55;;;;;;;22.74;77.21;99001.42;1730067;81;21032;-69
2021/07/19 03:33:15;;;;;;;21.82;15.85;;;;;;;22.75;76.69;99003.01;1720878;83;21456;-69
2021/07/19 03:35:41;;;;;;;20.17;15.83;;;;;;;22.74;76.51;99004.20;1723413;82;21055;-68
2021/07/19 03:38:13;;;;;;;22.17;16.00;;;;;;;22.77;76.45;99000.10;1705954;83;20928;-69
2021/07/19 03:40:42;;;;;;;21.12;15.55;;;;;;;22.83;76.19;99003.36;1727118;81;21549;-68
2021/07/19 03:43:09;;;;;;;24.35;16.00;;;;;;;22.90;75.85;98991.56;1715159;82;21024;-68
2021/07/19 03:45:37;;;;;;;23.35;15.45;;;;;;;22.96;75.64;98993.66;1723331;82;21074;-68
2021/07/19 03:48:06;;;;;;;19.40;15.13;;;;;;;23.10;75.41;98998.05;1726853;82;21057;-70
2021/07/19 03:50:35;;;;;;;23.45;15.35;;;;;;;23.19;75.22;99003.35;1736170;81;21100;-69
2021/07/19 03:53:02;;;;;;;21.68;14.95;;;;;;;23.35;74.89;98995.66;1720832;82;20979;-68
2021/07/19 03:55:28;;;;;;;22.55;14.78;;;;;;;23.57;74.14;98998.98;1725567;82;21654;-68
2021/07/19 03:57:55;;;;;;;21.95;13.45;;;;;;;23.71;73.47;99001.16;1723182;83;21003;-68
2021/07/19 04:00:23;;;;;;;22.13;14.73;;;;;;;23.87;73.19;99003.77;1718838;83;21012;-67
2021/07/19 04:02:54;;;;;;;19.45;14.15;;;;;;;24.00;72.64;99002.33;1715295;82;21083;-68
2021/07/19 04:05:24;;;;;;;20.43;14.38;;;;;;;24.15;71.93;99004.14;1700617;83;21573;-69
2021/07/19 04:07:55;;;;;;;25.23;15.13;;;;;;;24.25;71.19;99008.44;1716366;82;20996;-68
2021/07/19 04:10:23;;;;;;;21.65;13.55;;;;;;;24.41;70.22;99000.47;1721023;82;21042;-69
2021/07/19 04:12:51;;;;;;;23.05;14.00;;;;;;;24.56;70.10;99006.37;1721491;82;21054;-69
2021/07/19 04:15:20;;;;;;;22.10;13.80;;;;;;;24.81;69.98;99001.04;1725947;81;21055;-68
2021/07/19 04:17:47;;;;;;;18.15;13.08;;;;;;;25.04;68.98;98999.70;1726817;82;20995;-68
2021/07/19 04:20:17;;;;;;;19.60;12.15;;;;;;;25.27;67.09;99002.25;1706890;83;21007;-68
2021/07/19 04:22:44;;;;;;;22.48;13.58;;;;;;;25.30;67.03;99004.84;1699809;83;21004;-68
2021/07/19 04:25:13;;;;;;;18.23;13.43;;;;;;;25.30;67.03;99004.84;1707788;83;21041;-69
2021/07/19 04:27:42;;;;;;;19.65;11.70;;;;;;;25.48;66.31;99005.18;1700408;83;21027;-68
2021/07/19 04:30:10;;;;;;;18.35;12.88;;;;;;;25.66;65.15;98999.74;1697852;83;21023;-69
2021/07/19 04:32:41;;;;;;;17.17;11.88;;;;;;;25.69;64.07;98998.96;1721587;81;21021;-68
2021/07/19 04:35:18;;;;;;;19.35;12.35;;;;;;;25.66;63.94;98999.74;1714001;82;21538;-68
2021/07/19 04:37:50;;;;;;;20.20;11.93;;;;;;;25.65;64.17;98996.74;1710855;82;21491;-68
2021/07/19 04:40:17;;;;;;;16.25;12.33;;;;;;;25.69;63.94;98994.19;1723293;82;21137;-68
2021/07/19 04:42:43;;;;;;;18.92;12.07;;;;;;;25.75;64.42;98993.23;1719608;83;21566;-69
2021/07/19 04:45:11;;;;;;;19.12;12.82;;;;;;;25.98;64.29;98997.92;1723520;82;21039;-70
2021/07/19 04:47:37;;;;;;;23.55;13.58;;;;;;;26.21;63.95;99004.63;1720364;83;21020;-70
2021/07/19 04:50:05;;;;;;;20.20;12.65;;;;;;;26.38;63.30;98996.09;1713622;82;21059;-68
2021/07/19 04:52:34;;;;;;;26.20;13.95;;;;;;;26.38;63.00;98996.09;1694777;83;21513;-69
2021/07/19 04:55:00;;;;;;;22.25;12.82;;;;;;;26.38;63.28;98989.12;1721015;82;21596;-71
2021/07/19 04:57:27;;;;;;;24.70;13.22;;;;;;;26.42;63.41;98988.53;1723807;82;21006;-70
2021/07/19 04:59:53;;;;;;;22.50;13.55;;;;;;;26.55;63.45;98986.37;1719454;82;21509;-67
2021/07/19 05:02:21;;;;;;;22.30;13.90;;;;;;;26.75;63.30;98978.40;1723083;81;20959;-68
2021/07/19 05:04:51;;;;;;;22.07;13.93;;;;;;;26.88;62.86;98979.66;1723118;83;21183;-68
2021/07/19 05:07:23;;;;;;;18.98;12.88;;;;;;;26.90;62.93;98978.64;1730341;82;20972;-68
2021/07/19 05:09:50;;;;;;;25.45;13.95;;;;;;;26.94;62.89;98980.05;1726322;82;21023;-69
2021/07/19 05:12:20;;;;;;;21.15;13.03;;;;;;;26.91;62.67;98984.44;1736552;82;21011;-70
2021/07/19 05:14:48;;;;;;;21.20;13.53;;;;;;;26.87;62.91;98985.03;1735736;82;21081;-69
2021/07/19 05:17:15;;;;;;;22.37;14.65;;;;;;;26.93;63.45;98989.02;1716346;82;21015;-68
2021/07/19 05:19:42;;;;;;;21.35;15.30;;;;;;;27.15;63.26;98977.24;1716815;82;21633;-68
2021/07/19 05:22:12;;;;;;;21.20;14.00;;;;;;;27.33;62.34;98986.41;1732562;82;20996;-69
2021/07/19 05:24:39;;;;;;;23.30;14.73;;;;;;;27.40;62.25;98982.20;1720919;82;21024;-69
2021/07/19 05:27:07;;;;;;;18.60;14.73;;;;;;;27.46;62.35;98975.02;1724463;82;21006;-68
2021/07/19 05:29:35;;;;;;;24.40;14.70;;;;;;;27.63;61.93;98976.20;1724001;82;21059;-69
2021/07/19 05:32:03;;;;;;;24.30;14.35;;;;;;;27.81;61.73;98976.14;1719653;82;20987;-69
2021/07/19 05:34:30;;;;;;;20.85;13.75;;;;;;;28.00;61.27;98975.06;1729565;81;21035;-68
2021/07/19 05:36:57;;;;;;;20.32;13.88;;;;;;;28.12;60.88;98990.03;1703855;82;21573;-68
2021/07/19 05:39:24;;;;;;;24.25;15.30;;;;;;;28.07;59.97;98984.84;1705710;83;21039;-69
2021/07/19 05:41:50;;;;;;;20.45;14.50;;;;;;;27.93;60.60;98973.69;1725697;83;21027;-69
2021/07/19 05:44:17;;;;;;;23.85;13.93;;;;;;;28.08;61.21;98978.06;1723981;83;21054;-69
2021/07/19 05:46:44;;;;;;;19.87;14.15;;;;;;;28.35;60.91;98966.31;1695214;85;21043;-70
2021/07/19 05:49:10;;;;;;;27.75;15.40;;;;;;;28.65;60.00;98970.73;1698046;83;21531;-69
2021/07/19 05:51:37;;;;;;;21.05;13.93;;;;;;;28.86;59.24;98969.20;1725660;83;21026;-70
2021/07/19 05:54:03;;;;;;;22.98;15.08;;;;;;;29.07;58.90;98971.82;1699082;83;21007;-68
2021/07/19 05:56:32;;;;;;;21.25;14.87;;;;;;;29.26;58.42;98976.66;1696986;83;21062;-69
2021/07/19 05:58:58;;;;;;;18.12;14.15;;;;;;;29.38;57.29;98971.95;1711377;83;21466;-69
2021/07/19 06:01:25;;;;;;;20.68;14.47;;;;;;;29.50;57.51;98975.64;1725410;83;21708;-70
2021/07/19 06:03:52;;;;;;;22.52;14.18;;;;;;;29.70;56.60;98980.02;1725176;83;21074;-70
2021/07/19 06:13:37;;;;;;;22.58;13.68;;;;;;;30.12;56.69;98985.15;1801179;79;23394;-68
2021/07/19 06:16:04;;;;;;;22.95;14.58;;;;;;;30.09;55.80;98983.19;1735866;80;21074;-68
2021/07/19 06:18:31;;;;;;;19.90;14.30;;;;;;;30.09;55.63;98982.59;1744271;82;21163;-69
2021/07/19 06:20:57;;;;;;;24.52;14.05;;;;;;;30.24;55.20;98991.62;1750621;82;21035;-68
2021/07/19 06:23:24;;;;;;;21.73;15.18;;;;;;;30.45;55.48;98991.96;1745812;81;20984;-69
2021/07/19 06:25:51;;;;;;;17.80;13.25;;;;;;;30.67;54.40;99001.67;1747561;82;21059;-72
2021/07/19 06:28:18;;;;;;;19.25;14.35;;;;;;;30.66;53.66;99000.69;1744465;82;21019;-69
2021/07/19 06:30:45;;;;;;;18.60;13.08;;;;;;;30.52;53.06;99002.48;1751224;82;21102;-69
2021/07/19 06:33:11;;;;;;;19.32;12.93;;;;;;;30.66;53.86;99002.89;1744226;82;21019;-68
2021/07/19 06:35:37;;;;;;;21.90;13.95;;;;;;;30.78;53.87;99000.11;1744565;80;20995;-69
2021/07/19 06:38:03;;;;;;;18.67;13.00;;;;;;;30.80;53.63;99005.48;1728775;80;21509;-70
2021/07/19 06:40:30;;;;;;;20.90;13.40;;;;;;;30.85;52.91;99007.02;1756854;80;21054;-69
2021/07/19 06:42:56;;;;;;;17.20;12.43;;;;;;;30.97;53.21;99001.63;1746759;81;21098;-70
2021/07/19 06:45:23;;;;;;;19.45;12.10;;;;;;;31.08;52.14;99001.45;1728929;82;21078;-68
2021/07/19 06:47:49;;;;;;;19.80;12.63;;;;;;;30.98;52.46;98994.79;1734002;81;21003;-70
2021/07/19 06:50:16;;;;;;;18.92;13.22;;;;;;;30.95;51.71;98996.22;1739761;82;21715;-68
2021/07/19 06:52:42;;;;;;;17.32;12.73;;;;;;;31.02;51.91;98995.53;1738862;82;21030;-69
2021/07/19 06:55:10;;;;;;;19.92;12.88;;;;;;;31.30;52.28;98997.66;1749342;82;21110;-69
2021/07/19 06:57:37;;;;;;;14.03;10.68;;;;;;;31.45;51.06;98999.01;1732992;82;21082;-69
2021/07/19 07:00:07;;;;;;;18.98;11.65;;;;;;;31.55;50.89;99007.28;1745924;82;21079;-69
2021/07/19 07:02:34;;;;;;;19.15;13.03;;;;;;;31.69;49.68;99005.42;1743159;80;21012;-71
2021/07/19 07:05:00;;;;;;;18.02;12.03;;;;;;;31.64;49.61;99006.70;1730795;80;21503;-71
2021/07/19 07:07:26;;;;;;;17.23;11.80;;;;;;;31.69;49.89;98999.19;1737769;82;21011;-70
2021/07/19 07:09:53;;;;;;;17.92;12.63;;;;;;;32.00;50.19;98994.14;1739516;82;21011;-71
2021/07/19 07:12:20;;;;;;;17.05;11.90;;;;;;;32.42;48.99;98989.03;1726204;82;21039;-69
2021/07/19 07:14:47;;;;;;;15.98;12.68;;;;;;;32.62;48.49;98985.41;1720174;82;21024;-69
2021/07/19 07:17:14;;;;;;;18.30;12.30;;;;;;;32.43;47.27;98979.97;1722925;82;21031;-69
2021/07/19 07:19:41;;;;;;;20.77;11.93;;;;;;;32.53;47.44;98983.16;1722083;82;21561;-69
2021/07/19 07:22:07;;;;;;;19.20;12.23;;;;;;;32.81;46.99;98971.86;1717208;81;21003;-68
2021/07/19 07:27:57;;;;;;;18.32;11.75;;;;;;;33.24;45.76;98971.00;1902931;74;22764;-69
2021/07/19 07:30:25;;;;;;;14.00;10.85;;;;;;;33.04;45.76;98967.47;1856382;76;21633;-70
2021/07/19 07:32:52;;;;;;;16.57;11.70;;;;;;;33.10;46.25;98969.12;1844476;77;20972;-69
2021/07/19 07:35:19;;;;;;;16.62;11.18;;;;;;;33.00;45.54;98973.20;1846861;76;21030;-69
2021/07/19 07:37:45;;;;;;;15.40;11.15;;;;;;;33.01;45.67;98974.80;1844210;77;21056;-70
2021/07/19 07:40:16;;;;;;;17.67;10.58;;;;;;;33.12;45.67;98968.91;1849674;76;21575;-67
2021/07/19 07:42:42;;;;;;;16.23;10.58;;;;;;;33.26;44.96;98959.29;1826420;77;21053;-69
2021/07/19 07:45:10;;;;;;;16.10;9.80;;;;;;;33.25;45.86;98966.95;1825020;77;21446;-69
2021/07/19 07:47:41;;;;;;;14.75;9.53;;;;;;;33.16;45.72;98977.28;1846504;77;21020;-69
2021/07/19 07:50:09;;;;;;;14.58;9.45;;;;;;;32.85;46.15;98970.55;1834203;77;21040;-70
2021/07/19 07:52:35;;;;;;;14.80;8.90;;;;;;;32.34;46.68;98960.07;1826972;77;21019;-69
2021/07/19 07:55:03;;;;;;;12.75;8.20;;;;;;;31.85;48.12;98955.63;1835736;77;21031;-70
2021/07/19 07:57:29;;;;;;;12.90;8.50;;;;;;;31.34;48.82;98943.56;1864607;76;21003;-68
2021/07/19 07:59:57;;;;;;;16.67;9.10;;;;;;;30.77;49.09;98938.91;1856233;77;21071;-70
2021/07/19 08:02:23;;;;;;;12.10;7.83;;;;;;;30.23;50.63;98936.69;1852905;77;21004;-68
2021/07/19 08:04:50;;;;;;;15.80;7.45;;;;;;;29.76;50.90;98930.05;1856910;77;21097;-69
2021/07/19 08:07:16;;;;;;;14.10;8.13;;;;;;;29.23;51.63;98927.81;1770609;80;21026;-68
2021/07/19 08:09:46;;;;;;;18.30;7.50;;;;;;;28.78;52.47;98949.45;1779229;80;21090;-68
2021/07/19 08:12:13;;;;;;;19.02;7.65;;;;;;;28.29;53.64;98941.37;1816564;79;20978;-70
2021/07/19 08:14:39;;;;;;;16.52;7.17;;;;;;;27.84;54.42;98950.97;1817454;78;21574;-70
2021/07/19 08:17:06;;;;;;;13.08;6.78;;;;;;;27.25;55.74;98976.43;1800027;79;21014;-70
2021/07/19 08:19:32;;;;;;;11.78;6.35;;;;;;;26.56;57.32;98980.99;1796120;79;21031;-69
2021/07/19 08:22:00;;;;;;;12.07;6.67;;;;;;;25.94;58.64;99015.22;1821912;78;21016;-71
2021/07/19 08:24:26;;;;;;;12.23;7.25;;;;;;;25.35;60.58;99024.00;1817830;78;21046;-70
2021/07/19 08:26:52;;;;;;;12.70;6.62;;;;;;;24.95;61.97;99024.27;1801374;78;21044;-70
2021/07/19 08:29:19;;;;;;;15.25;6.58;;;;;;;24.64;63.28;99017.20;1815846;79;21051;-71
2021/07/19 08:31:46;;;;;;;16.42;7.67;;;;;;;24.37;64.44;99010.75;1793578;78;21026;-69
2021/07/19 08:34:12;;;;;;;15.13;7.65;;;;;;;24.08;65.49;99010.39;1782420;79;20963;-68
2021/07/19 08:36:38;;;;;;;13.38;6.83;;;;;;;23.76;67.36;99023.88;1755725;80;21466;-68
2021/07/19 08:39:06;;;;;;;16.02;7.15;;;;;;;23.76;67.36;99023.88;1801871;77;20986;-70
2021/07/19 08:41:32;;;;;;;16.02;7.53;;;;;;;23.63;68.39;99031.43;1763108;80;21545;-69
2021/07/19 08:44:04;;;;;;;18.75;7.55;;;;;;;23.63;68.39;99031.43;1785142;79;21533;-69
2021/07/19 08:46:27;;;;;;;16.55;7.72;;;;;;;23.53;69.05;99033.44;1783801;79;21022;-68
2021/07/19 08:48:53;;;;;;;19.62;8.10;;;;;;;23.35;69.72;99067.08;1763304;80;21567;-70
2021/07/19 08:51:20;;;;;;;17.75;7.78;;;;;;;23.25;70.44;99115.11;1769475;80;21007;-69
2021/07/19 08:53:46;;;;;;;18.65;7.28;;;;;;;23.17;70.75;99145.89;1793271;79;20999;-68
2021/07/19 08:56:12;;;;;;;16.45;8.43;;;;;;;22.98;71.45;99151.50;1778401;79;21106;-68
2021/07/19 08:58:39;;;;;;;20.97;7.50;;;;;;;22.82;72.46;99154.36;1768438;80;21474;-69
2021/07/19 09:01:05;;;;;;;16.20;7.70;;;;;;;22.67;73.04;99173.30;1719144;81;21034;-68
2021/07/19 09:03:32;;;;;;;14.28;6.90;;;;;;;22.53;73.65;99186.23;1785734;79;21518;-69
2021/07/19 09:05:58;;;;;;;13.60;6.30;;;;;;;22.40;74.19;99179.80;1782938;78;21098;-69
2021/07/19 09:08:25;;;;;;;14.55;7.05;;;;;;;22.32;74.65;99167.17;1781686;80;20967;-68
2021/07/19 09:10:51;;;;;;;20.72;7.70;;;;;;;22.18;75.40;99156.34;1803349;79;21486;-69
2021/07/19 09:13:18;;;;;;;17.37;7.97;;;;;;;22.04;76.29;99151.30;1767911;79;21009;-68
2021/07/19 09:15:46;;;;;;;18.87;7.83;;;;;;;21.97;76.94;99142.83;1791345;79;21030;-68
2021/07/19 09:18:20;;;;;;;15.63;6.78;;;;;;;21.95;77.58;99125.77;1786503;79;21536;-69
2021/07/19 09:20:47;;;;;;;15.28;6.55;;;;;;;21.95;77.83;99110.53;1797226;79;21041;-69
2021/07/19 09:23:13;;;;;;;14.03;7.30;;;;;;;21.92;77.43;99094.63;1795608;79;21189;-69
2021/07/19 09:25:40;;;;;;;14.30;6.70;;;;;;;21.89;77.12;99082.86;1800633;79;21065;-69
2021/07/19 09:28:11;;;;;;;13.60;6.65;;;;;;;21.91;77.30;99082.51;1770134;80;21033;-68
2021/07/19 09:30:43;;;;;;;14.43;7.08;;;;;;;21.96;77.43;99078.08;1782179;79;21007;-69
2021/07/19 09:35:51;;;;;;;14.85;7.20;;;;;;;22.04;76.75;99085.36;1774130;79;23036;-71
2021/07/19 09:38:18;;;;;;;16.07;7.90;;;;;;;21.91;77.22;99095.78;1737115;81;21494;-69
2021/07/19 09:40:48;;;;;;;16.00;8.00;;;;;;;21.88;77.25;99088.75;1733825;81;21034;-69
2021/07/19 09:43:20;;;;;;;13.15;7.35;;;;;;;21.80;76.82;99089.17;1742881;81;21078;-67
2021/07/19 09:46:02;;;;;;;14.23;8.15;;;;;;;21.77;76.94;99077.42;1739384;81;21093;-68
2021/07/19 09:48:29;;;;;;;14.33;7.65;;;;;;;21.76;77.01;99080.78;1760441;81;21011;-70
2021/07/19 09:50:56;;;;;;;12.50;6.90;;;;;;;21.73;77.26;99082.08;1753585;81;21612;-69
2021/07/19 09:53:39;;;;;;;12.47;7.42;;;;;;;21.72;77.66;99090.97;1750104;80;21010;-68
2021/07/19 09:56:19;;;;;;;13.78;7.08;;;;;;;21.74;77.94;99105.86;1741720;81;21050;-69
2021/07/19 09:58:48;;;;;;;12.93;7.53;;;;;;;21.77;78.21;99113.44;1731952;81;21651;-69
2021/07/19 10:01:36;;;;;;;19.02;8.10;;;;;;;21.82;78.38;99125.64;1737157;81;21580;-70
2021/07/19 10:04:16;;;;;;;14.00;7.87;;;;;;;21.89;78.57;99131.92;1740352;81;21686;-70
2021/07/19 10:06:44;;;;;;;18.07;8.28;;;;;;;21.93;78.54;99156.40;1731403;83;20975;-70
2021/07/19 10:09:13;;;;;;;12.50;7.87;;;;;;;21.98;78.73;99174.11;1729132;81;21530;-70
2021/07/19 10:11:45;;;;;;;16.52;7.40;;;;;;;22.01;78.93;99198.33;1745747;81;20982;-70
2021/07/19 10:14:11;;;;;;;15.85;8.08;;;;;;;22.03;79.21;99199.60;1748925;81;21038;-71
2021/07/19 10:16:39;;;;;;;13.98;7.60;;;;;;;22.04;79.20;99192.87;1749110;81;21005;-71
2021/07/19 10:19:05;;;;;;;16.32;8.18;;;;;;;22.03;79.25;99177.42;1760261;81;21030;-72
2021/07/19 10:21:34;;;;;;;13.43;7.60;;;;;;;22.05;79.22;99164.58;1753200;81;21007;-71
2021/07/19 10:24:07;;;;;;;16.37;8.63;;;;;;;22.09;79.30;99171.01;1753754;81;21038;-70
2021/07/19 10:26:34;;;;;;;14.63;8.33;;;;;;;22.11;79.27;99172.25;1745721;81;21051;-70
2021/07/19 10:29:00;;;;;;;14.68;7.87;;;;;;;22.20;79.31;99177.60;1733921;81;21010;-70
2021/07/19 10:31:28;;;;;;;13.50;8.45;;;;;;;22.24;79.31;99187.61;1740388;81;20983;-70
2021/07/19 10:33:57;;;;;;;12.98;8.05;;;;;;;22.30;79.41;99213.88;1749581;81;21026;-70
2021/07/19 10:36:35;;;;;;;17.07;8.65;;;;;;;22.35;79.40;99214.77;1739912;82;21003;-70
2021/07/19 10:39:05;;;;;;;17.12;8.20;;;;;;;22.34;79.15;99195.94;1719053;83;21066;-71
2021/07/19 10:41:31;;;;;;;18.70;8.50;;;;;;;22.28;79.17;99151.65;1720586;82;21034;-72
2021/07/19 10:44:06;;;;;;;16.80;9.13;;;;;;;22.23;79.25;99100.05;1748784;82;21487;-71
2021/07/19 10:46:32;;;;;;;14.95;7.72;;;;;;;22.08;79.25;99075.97;1722776;82;21003;-70
2021/07/19 10:49:09;;;;;;;16.65;8.98;;;;;;;21.95;79.42;99083.39;1730381;82;20983;-70
2021/07/19 10:51:45;;;;;;;18.12;9.05;;;;;;;21.89;79.49;99086.20;1727123;82;20988;-70
2021/07/19 10:54:20;;;;;;;15.10;7.30;;;;;;;21.79;79.79;99092.52;1726143;82;21037;-70
2021/07/19 10:56:48;;;;;;;15.20;7.87;;;;;;;21.71;80.11;99099.66;1745842;82;20979;-70
2021/07/19 10:59:33;;;;;;;13.48;7.45;;;;;;;21.64;80.40;99085.06;1727735;78;21012;-69
2021/07/19 11:02:00;;;;;;;14.65;7.95;;;;;;;21.65;80.56;99071.42;1750737;80;20944;-67
2021/07/19 11:04:26;;;;;;;15.53;7.55;;;;;;;21.60;80.58;99057.87;1746870;82;21055;-67
2021/07/19 11:07:01;;;;;;;17.52;8.25;;;;;;;21.56;80.73;99059.75;1733422;82;21062;-67
2021/07/19 11:09:35;;;;;;;15.63;7.60;;;;;;;21.53;80.66;99063.23;1718617;82;21015;-67
2021/07/19 11:12:11;;;;;;;13.13;7.65;;;;;;;21.45;80.83;99065.61;1725188;82;20944;-68
2021/07/19 11:14:56;;;;;;;15.70;7.97;;;;;;;21.45;80.98;99073.11;1748319;82;21008;-69
2021/07/19 11:17:27;;;;;;;19.37;7.22;;;;;;;21.51;80.99;99076.63;1748200;82;21349;-69
2021/07/19 11:19:56;;;;;;;13.75;6.83;;;;;;;21.59;80.87;99065.14;1746239;82;21130;-68
2021/07/19 11:22:26;;;;;;;16.20;7.80;;;;;;;21.57;80.89;99059.98;1735843;82;20952;-68
2021/07/19 11:24:57;;;;;;;14.60;8.20;;;;;;;21.55;81.12;99051.78;1728638;82;21066;-68
2021/07/19 11:27:38;;;;;;;15.38;7.62;;;;;;;21.59;81.34;99059.59;1744183;82;20987;-68
2021/07/19 11:30:18;;;;;;;10.75;6.95;;;;;;;21.64;81.59;99066.25;1726869;82;21028;-68
2021/07/19 11:32:45;;;;;;;15.05;7.78;;;;;;;21.75;81.87;99078.39;1725161;82;20972;-68
2021/07/19 11:35:23;;;;;;;13.05;7.42;;;;;;;21.83;81.74;99089.25;1713588;82;21441;-68
2021/07/19 11:37:56;;;;;;;12.40;6.75;;;;;;;21.99;81.80;99098.95;1743021;82;21023;-68
2021/07/19 11:40:30;;;;;;;11.63;7.60;;;;;;;22.15;81.76;99105.22;1737886;82;21083;-69